• Join FlightAware (Why Join?)
  • Login
  • US Flag 
12:08PM EDT


 

Airport Tracker/Info


-or-


 

Live Flight TrackerFlight Track Log ✈ EJA696 ✈ 16-Jul-2013 ✈ 11R - KEQY

Flight Track Log - Related Links

Times and Time Zones

All times are in EDT time to prevent confusion due to time zone crossing. See the EJA696 flight status page for this flight to view local times or setup timezone preferences in your user account.

Time Position Orientation Groundspeed Altitude Reporting Facility
EDT Latitude Longitude Course Direction KTS MPH feet Rate Location/Type
01:28PM 30.1806 -96.3558 149° Southeast 203 234 41,000  Level Houston Center
01:29PM 30.2183 -96.3181 41° Northeast 212 244 3,100 -18,120 Descending Houston Center
01:30PM 30.2614 -96.2897 30° Northeast 182 209 3,600 1,500 Climbing Houston Center
01:31PM 30.3133 -96.2436 37° Northeast 223 257 6,200 1,620 Climbing Houston Center
01:32PM 30.3728 -96.1867 40° Northeast 263 303 7,000 1,080 Climbing Houston Center
01:34PM 30.4461 -96.1194 38° Northeast 281 323 8,500 960 Climbing Houston Center
01:35PM 30.5078 -96.0631 38° Northeast 282 325 9,000 240 Climbing Houston Center
01:36PM 30.5542 -96.0025 48° Northeast 302 348 9,000  Level Houston Center
01:37PM 30.5925 -95.9253 60° Northeast 283 326 9,000 300 Level Houston Center
01:38PM 30.6375 -95.8311 61° Northeast 279 321 9,700 960 Climbing Houston Center
01:39PM 30.6728 -95.7572 61° Northeast 268 308 11,000 1,200 Climbing Houston Center
01:40PM 30.7117 -95.6678 63° Northeast 295 339 12,200 960 Climbing Houston Center
01:41PM 30.7556 -95.5753 61° Northeast 320 368 13,100 1,500 Climbing Houston Center
01:42PM 30.8017 -95.4817 60° Northeast 331 381 15,300 1,980 Climbing Houston Center
01:43PM 30.8453 -95.3911 61° Northeast 324 373 17,200 1,860 Climbing Houston Center
01:44PM 30.8989 -95.2797 61° Northeast 326 375 19,200 1,740 Climbing Houston Center
01:45PM 30.9439 -95.1842 61° Northeast 333 383 20,900 1,500 Climbing Houston Center
01:46PM 30.9906 -95.0842 61° Northeast 344 396 22,300 1,320 Climbing Houston Center
01:47PM 31.0383 -94.9819 61° Northeast 356 410 23,700 1,320 Climbing Houston Center
01:48PM 31.0858 -94.8800 61° Northeast 358 412 25,100 1,260 Climbing Houston Center
01:49PM 31.1383 -94.7692 61° Northeast 371 427 26,400 960 Climbing Houston Center
01:50PM 31.1647 -94.6392 77° East 383 441 27,100 720 Climbing Houston Center
01:51PM 31.1722 -94.5156 86° East 390 449 27,900 720 Climbing Houston Center
01:52PM 31.1781 -94.3919 87° East 386 444 28,700 780 Climbing Houston Center
01:53PM 31.1850 -94.2653 86° East 391 450 29,500 780 Climbing Houston Center
01:54PM 31.1900 -94.1389 87° East 392 451 30,400 960 Climbing Houston Center
01:55PM 31.1983 -93.9869 86° East 392 451 31,600 960 Climbing Houston Center
01:56PM 31.2039 -93.8711 87° East 390 449 32,500 960 Climbing Houston Center
01:57PM 31.2083 -93.7442 88° East 391 450 33,600 960 Climbing Houston Center
01:58PM 31.2144 -93.6172 87° East 392 451 34,600 1,020 Climbing Houston Center
01:59PM 31.2203 -93.4903 87° East 392 451 35,700 1,020 Climbing Houston Center
02:00PM 31.2253 -93.3631 87° East 392 451 36,700 1,140 Climbing Houston Center
02:01PM 31.2319 -93.2125 87° East 388 447 38,100 1,080 Climbing Houston Center
02:02PM 31.2364 -93.0881 88° East 385 443 39,000 420 Climbing Houston Center
02:03PM 31.2414 -92.9608 87° East 394 453 39,000  Level Houston Center
02:04PM 31.2461 -92.8247 88° East 411 473 39,000  Level Houston Center
02:05PM 31.2514 -92.6906 87° East 414 476 39,000  Level Houston Center
02:06PM 31.2589 -92.5539 86° East 419 482 39,000  Level Houston Center
02:08PM 31.3011 -92.4208 70° East 436 502 39,000 720 Level Houston Center
02:09PM 31.3500 -92.2658 70° East 425 489 40,600 960 Climbing Houston Center
02:10PM 31.3903 -92.1464 68° East 401 461 41,000 180 Climbing Houston Center
02:11PM 31.4294 -92.0272 69° East 408 470 41,000  Level Houston Center
02:12PM 31.4717 -91.9017 68° East 414 476 41,000  Level Houston Center
02:13PM 31.5125 -91.7733 70° East 421 484 41,000  Level Houston Center
02:14PM 31.5631 -91.6169 69° East 427 491 41,000  Level Houston Center
02:15PM 31.6053 -91.4872 69° East 428 493 41,000  Level Houston Center
02:16PM 31.6481 -91.3561 69° East 430 495 41,000  Level Houston Center
02:17PM 31.6889 -91.2258 70° East 427 491 41,000  Level Houston Center
02:18PM 31.7353 -91.0794 70° East 428 493 41,000  Level Houston Center
02:19PM 31.7756 -90.9492 70° East 426 490 41,000  Level Houston Center
02:20PM 31.8211 -90.8086 69° East 426 490 41,000  Level Houston Center
02:21PM 31.8581 -90.6900 70° East 421 484 41,000  Level Houston Center
02:22PM 31.8978 -90.5625 70° East 416 479 41,000  Level Houston Center
02:23PM 31.9375 -90.4339 70° East 417 480 41,000  Level Houston Center
02:24PM 31.9775 -90.3064 70° East 415 478 41,000  Level Houston Center
02:25PM 32.0258 -90.1522 70° East 416 479 41,000  Level Houston Center
02:26PM 32.0647 -90.0250 70° East 413 475 41,000  Level Houston Center
02:27PM 32.1042 -89.8956 70° East 418 481 41,000  Level Houston Center
02:28PM 32.1428 -89.7714 70° East 414 476 41,000  Level Houston Center
02:29PM 32.1853 -89.6161 72° East 410 472 41,000  Level Memphis Center
02:30PM 32.2242 -89.4906 70° East 410 472 41,000  Level Memphis Center
02:31PM 32.2650 -89.3622 69° East 410 472 41,000  Level Memphis Center
02:32PM 32.3036 -89.2342 70° East 410 472 41,000  Level Memphis Center
02:33PM 32.3442 -89.1058 69° East 410 472 41,000  Level Memphis Center
02:34PM 32.3803 -88.9797 71° East 410 472 41,000  Level Memphis Center
02:35PM 32.4206 -88.8486 70° East 410 472 41,000  Level Memphis Center
02:36PM 32.4586 -88.7200 71° East 410 472 41,000  Level Memphis Center
02:37PM 32.4967 -88.5936 70° East 410 472 41,000  Level Memphis Center
02:40PM 32.5856 -88.2886 71° East 404 465 41,000  Level Atlanta Center
02:41PM 32.6233 -88.1597 71° East 404 465 41,000  Level Atlanta Center
02:42PM 32.6608 -88.0308 71° East 404 465 41,000  Level Atlanta Center
02:43PM 32.6986 -87.8967 71° East 409 471 41,000  Level Atlanta Center
02:44PM 32.7339 -87.7700 72° East 409 471 41,000  Level Atlanta Center
02:45PM 32.7669 -87.6428 73° East 409 471 41,000  Level Atlanta Center
02:46PM 32.8058 -87.5161 70° East 409 471 41,000  Level Atlanta Center
02:47PM 32.8408 -87.3914 72° East 402 463 41,000  Level Atlanta Center
02:48PM 32.8861 -87.2569 68° East 407 468 41,000  Level Atlanta Center
02:49PM 32.9119 -87.1417 75° East 395 455 41,000  Level Atlanta Center
02:50PM 32.9442 -87.0189 73° East 390 449 41,000  Level Atlanta Center
02:51PM 32.9806 -86.8939 71° East 395 455 41,000  Level Atlanta Center
02:52PM 33.0147 -86.7711 72° East 395 455 41,000  Level Atlanta Center
02:53PM 33.0486 -86.6458 72° East 388 447 41,000  Level Atlanta Center
02:54PM 33.0825 -86.5181 72° East 390 449 41,000  Level Atlanta Center
02:55PM 33.1161 -86.4000 71° East 390 449 41,000  Level Atlanta Center
02:56PM 33.1478 -86.2767 73° East 387 445 41,000  Level Atlanta Center
02:57PM 33.1811 -86.1633 71° East 372 428 41,000  Level Atlanta Center
02:58PM 33.2125 -86.0350 74° East 377 434 41,000  Level Atlanta Center
02:59PM 33.2478 -85.9142 71° East 380 437 41,000  Level Atlanta Center
03:00PM 33.2744 -85.8028 74° East 380 437 41,000  Level Atlanta Center
03:01PM 33.3053 -85.6817 73° East 375 432 41,000  Level Atlanta Center
03:02PM 33.3361 -85.5681 72° East 367 422 41,000  Level Atlanta Center
03:03PM 33.3667 -85.4467 73° East 367 422 41,000  Level Atlanta Center
03:04PM 33.4033 -85.3278 70° East 375 432 41,000  Level Atlanta Center
03:05PM 33.4317 -85.2086 74° East 375 432 41,000  Level Atlanta Center
03:06PM 33.4622 -85.0847 73° East 375 432 41,000  Level Atlanta Center
03:07PM 33.4944 -84.9631 72° East 375 432 41,000  Level Atlanta Center
03:08PM 33.5225 -84.8436 74° East 375 432 41,000  Level Atlanta Center
03:09PM 33.5544 -84.7219 72° East 380 437 41,000 -600 Level Atlanta Center
03:10PM 33.5842 -84.5925 75° East 374 430 39,900 -1,620 Descending Atlanta Center
03:11PM 33.6181 -84.4878 69° East 374 430 37,900 -1,740 Descending Atlanta Center
03:12PM 33.6456 -84.3708 74° East 368 423 36,400 -1,500 Descending Atlanta Center
03:13PM 33.6792 -84.2558 71° East 362 417 35,000 -720 Descending Atlanta Center
03:14PM 33.7150 -84.1236 72° East 370 426 35,000  Level Atlanta Center
03:15PM 33.7525 -84.0014 70° East 375 432 35,000  Level Atlanta Center
03:16PM 33.7878 -83.8839 70° East 375 432 35,000  Level Atlanta Center
03:17PM 33.8231 -83.7611 71° East 380 437 35,000 -480 Level Atlanta Center
03:18PM 33.8583 -83.6411 70° East 380 437 34,100 -1,020 Descending Atlanta Center
03:19PM 33.8869 -83.5158 75° East 388 447 33,000 -600 Descending Atlanta Center
03:20PM 33.9200 -83.3953 72° East 382 440 33,000 -600 Level Atlanta Center
03:21PM 33.9547 -83.2700 71° East 387 445 31,800 -1,020 Descending Atlanta Center
03:23PM 34.0197 -83.0264 72° East 382 440 30,000 -720 Descending Atlanta Center
03:24PM 34.0542 -82.9031 71° East 382 440 29,800 -720 Descending Atlanta Center
03:25PM 34.0864 -82.7897 71° East 387 445 28,600 -1,380 Descending Atlanta Center
03:26PM 34.1206 -82.6611 72° East 387 445 27,100 -1,440 Descending Atlanta Center
03:27PM 34.1733 -82.5475 61° Northeast 387 445 25,700 -1,500 Descending Atlanta Center
03:28PM 34.2408 -82.4331 54° Northeast 392 451 24,200 -900 Descending Atlanta Center
03:29PM 34.3039 -82.3189 56° Northeast 405 466 24,000 -120 Descending Atlanta Center
03:30PM 34.3669 -82.2067 56° Northeast 405 466 24,000 -300 Level Atlanta Center
03:31PM 34.4281 -82.0997 55° Northeast 405 466 23,400 -960 Descending Atlanta Center
03:32PM 34.4908 -81.9847 56° Northeast 405 466 22,100 -1,560 Descending Atlanta Center
03:33PM 34.5556 -81.8672 56° Northeast 393 452 20,300 -2,160 Descending Atlanta Center
03:34PM 34.6122 -81.7647 56° Northeast 378 435 17,800 -2,700 Descending Atlanta Center
03:34PM 34.6464 -81.7033 56° Northeast 347 399 15,800 -2,700 Descending Atlanta Center
03:35PM 34.7028 -81.5981 57° Northeast 309 356 13,000 -1,800 Descending Atlanta Center
03:36PM 34.7389 -81.5186 61° Northeast 256 295 12,000 -600 Descending Atlanta Center
03:37PM 34.7642 -81.4269 71° East 292 336 11,900 -900 Descending Atlanta Center
03:38PM 34.7892 -81.3325 72° East 296 341 10,200 -1,620 Descending Atlanta Center
03:39PM 34.8103 -81.2458 73° East 274 315 8,700 -1,560 Descending Atlanta Center
03:40PM 34.8350 -81.1514 72° East 267 307 7,100 -1,560 Descending Atlanta Center
03:42PM 34.8581 -81.0619 73° East 255 293 5,400 -1,080 Descending Atlanta Center
03:43PM 34.8792 -80.9853 71° East 248 285 4,900 -960 Descending Atlanta Center
03:44PM 34.9000 -80.9061 72° East 246 283 3,500 -900 Descending Atlanta Center
03:45PM 34.9211 -80.8317 71° East 203 234 3,000 -480 Descending Atlanta Center